createdAt,value
2022-08-17T00:00:34.543Z,99804.38
2022-08-17T00:03:26.926Z,99805.34
2022-08-17T00:06:13.023Z,99811.50
2022-08-17T00:08:46.056Z,99817.22
2022-08-17T00:11:25.662Z,99823.78
2022-08-17T00:13:56.121Z,99823.13
2022-08-17T00:16:55.461Z,99819.72
2022-08-17T00:19:23.947Z,99825.31
2022-08-17T00:22:30.877Z,99816.28
2022-08-17T00:24:39.592Z,99824.25
2022-08-17T00:27:06.414Z,99818.41
2022-08-17T00:29:33.366Z,99825.72
2022-08-17T00:32:01.726Z,99813.72
2022-08-17T00:34:48.593Z,99823.75
2022-08-17T00:37:15.603Z,99829.81
2022-08-17T00:39:42.657Z,99825.47
2022-08-17T00:42:15.930Z,99829.41
2022-08-17T00:44:42.778Z,99823.06
2022-08-17T00:47:09.791Z,99823.78
2022-08-17T00:49:36.849Z,99814.56
2022-08-17T00:52:15.582Z,99823.47
2022-08-17T00:54:46.813Z,99820.97
2022-08-17T00:57:17.106Z,99825.50
2022-08-17T01:00:01.513Z,99824.28
2022-08-17T01:02:36.680Z,99825.03
2022-08-17T01:05:16.416Z,99827.16
2022-08-17T01:07:47.899Z,99823.34
2022-08-17T01:11:00.679Z,99824.59
2022-08-17T01:13:04.448Z,99822.28
2022-08-17T01:15:36.464Z,99828.91
2022-08-17T01:18:06.590Z,99830.56
2022-08-17T01:20:43.136Z,99822.41
2022-08-17T01:23:19.875Z,99825.47
2022-08-17T01:25:54.928Z,99833.91
2022-08-17T01:28:52.266Z,99831.78
2022-08-17T01:31:10.884Z,99837.16
2022-08-17T01:33:37.836Z,99833.06
2022-08-17T01:36:07.310Z,99837.47
2022-08-17T01:38:39.406Z,99828.66
2022-08-17T01:41:13.263Z,99827.00
2022-08-17T01:43:45.740Z,99830.00
2022-08-17T01:46:22.807Z,99842.59
2022-08-17T01:48:51.225Z,99842.66
2022-08-17T01:51:19.218Z,99845.66
2022-08-17T01:53:58.101Z,99848.47
2022-08-17T01:56:26.404Z,99849.50
2022-08-17T01:58:53.846Z,99854.03
2022-08-17T02:01:24.620Z,99851.63
2022-08-17T02:03:53.492Z,99829.91
2022-08-17T02:06:45.183Z,99837.78
2022-08-17T02:09:23.211Z,99837.31
2022-08-17T02:11:52.471Z,99840.00
2022-08-17T02:14:20.962Z,99841.91
2022-08-17T02:16:47.814Z,99844.03
2022-08-17T02:19:16.758Z,99850.34
2022-08-17T02:21:47.787Z,99851.78
2022-08-17T02:24:58.798Z,99830.81
2022-08-17T02:27:13.720Z,99844.88
2022-08-17T02:29:40.720Z,99830.94
2022-08-17T02:32:28.243Z,99837.62
2022-08-17T02:34:59.743Z,99844.56
2022-08-17T02:37:28.478Z,99845.34
2022-08-17T02:39:59.537Z,99845.16
2022-08-17T02:42:32.823Z,99843.63
2022-08-17T02:45:01.165Z,99843.69
2022-08-17T02:47:29.000Z,99841.00
2022-08-17T02:49:57.973Z,99838.12
2022-08-17T02:52:43.139Z,99841.78
2022-08-17T02:55:40.295Z,99839.13
2022-08-17T02:58:10.619Z,99840.00
2022-08-17T03:00:41.745Z,99835.75
2022-08-17T03:03:10.779Z,99840.94
2022-08-17T03:05:38.444Z,99828.56
2022-08-17T03:08:06.557Z,99842.75
2022-08-17T03:10:33.953Z,99850.25
2022-08-17T03:13:01.669Z,99844.19
2022-08-17T03:15:31.941Z,99852.25
2022-08-17T03:17:59.733Z,99857.50
2022-08-17T03:20:31.747Z,99856.16
2022-08-17T03:23:01.746Z,99858.16
2022-08-17T03:25:39.716Z,99853.63
2022-08-17T03:28:07.477Z,99863.03
2022-08-17T03:30:35.167Z,99863.91
2022-08-17T03:33:04.310Z,99870.31
2022-08-17T03:35:34.925Z,99875.78
2022-08-17T03:38:02.102Z,99878.00
2022-08-17T03:40:41.836Z,99875.72
2022-08-17T03:43:18.814Z,99874.22
2022-08-17T03:46:04.130Z,99878.75
2022-08-17T03:48:51.367Z,99878.22
2022-08-17T03:51:40.772Z,99884.28
2022-08-17T03:54:28.842Z,99887.50
2022-08-17T03:57:09.494Z,99887.56
2022-08-17T03:59:38.343Z,99884.44
2022-08-17T04:02:11.525Z,99882.66
2022-08-17T04:04:39.580Z,99890.72
2022-08-17T04:07:06.840Z,99884.38
2022-08-17T04:09:35.027Z,99891.56
2022-08-17T04:12:04.765Z,99888.88
2022-08-17T04:14:39.273Z,99890.09
2022-08-17T04:17:20.621Z,99898.50
2022-08-17T04:19:48.213Z,99898.81
2022-08-17T04:22:32.421Z,99894.31
2022-08-17T04:25:22.054Z,99895.78
2022-08-17T04:27:48.924Z,99897.25
2022-08-17T04:30:15.965Z,99901.56
2022-08-17T04:33:06.482Z,99891.97
2022-08-17T04:35:46.145Z,99917.91
2022-08-17T04:38:15.785Z,99913.59
2022-08-17T04:41:02.185Z,99906.25
2022-08-17T04:43:31.180Z,99900.94
2022-08-17T04:46:00.724Z,99906.25
2022-08-17T04:48:36.263Z,99905.34
2022-08-17T04:51:31.637Z,99908.72
2022-08-17T04:54:01.473Z,99913.00
2022-08-17T04:56:30.095Z,99910.59
2022-08-17T04:59:01.609Z,99923.06
2022-08-17T05:01:31.932Z,99916.28
2022-08-17T05:04:01.878Z,99913.97
2022-08-17T05:06:49.659Z,99922.44
2022-08-17T05:09:18.051Z,99919.97
2022-08-17T05:11:45.895Z,99917.56
2022-08-17T05:14:13.993Z,99916.41
2022-08-17T05:16:40.894Z,99930.66
2022-08-17T05:19:07.690Z,99928.22
2022-08-17T05:21:34.575Z,99934.78
2022-08-17T05:24:01.538Z,99938.75
2022-08-17T05:26:32.876Z,99931.91
2022-08-17T05:29:03.455Z,99932.47
2022-08-17T05:31:30.835Z,99940.97
2022-08-17T05:33:58.210Z,99934.81
2022-08-17T05:36:41.730Z,99933.34
2022-08-17T05:39:16.124Z,99932.56
2022-08-17T05:41:45.891Z,99939.75
2022-08-17T05:44:12.755Z,99942.53
2022-08-17T05:46:44.994Z,99945.66
2022-08-17T05:49:14.804Z,99941.31
2022-08-17T05:51:41.545Z,99937.34
2022-08-17T05:54:27.243Z,99946.44
2022-08-17T05:57:15.116Z,99947.69
2022-08-17T06:00:11.345Z,99948.97
2022-08-17T06:02:53.299Z,99945.78
2022-08-17T06:05:48.444Z,99942.31
2022-08-17T06:09:02.407Z,99938.69
2022-08-17T06:12:18.900Z,99941.50
2022-08-17T06:15:37.283Z,99940.59
2022-08-17T06:18:08.120Z,99942.19
2022-08-17T06:21:08.628Z,99939.81
2022-08-17T06:23:45.301Z,99938.19
2022-08-17T06:26:21.238Z,99938.41
2022-08-17T06:29:04.359Z,99938.69
2022-08-17T06:31:36.965Z,99946.03
2022-08-17T06:34:07.370Z,99939.84
2022-08-17T06:36:52.425Z,99940.25
2022-08-17T06:39:31.129Z,99940.47
2022-08-17T06:43:02.437Z,99940.66
2022-08-17T06:45:07.918Z,99945.13
2022-08-17T06:47:34.855Z,99953.53
2022-08-17T06:50:07.775Z,99954.03
2022-08-17T06:52:53.904Z,99952.78
2022-08-17T06:55:33.266Z,99956.37
2022-08-17T06:58:16.003Z,99957.31
2022-08-17T07:00:47.284Z,99954.75
2022-08-17T07:03:55.632Z,99948.37
2022-08-17T07:06:27.057Z,99951.75
2022-08-17T07:09:01.221Z,99943.91
2022-08-17T07:11:38.583Z,99945.91
2022-08-17T07:14:23.940Z,99943.66
2022-08-17T07:16:53.578Z,99945.25
2022-08-17T07:19:24.403Z,99942.66
2022-08-17T07:22:08.643Z,99940.16
2022-08-17T07:24:47.283Z,99937.16
2022-08-17T07:27:28.167Z,99946.06
2022-08-17T07:30:10.834Z,99943.75
2022-08-17T07:32:51.358Z,99937.91
2022-08-17T07:35:37.592Z,99930.63
2022-08-17T07:38:24.749Z,99939.75
2022-08-17T07:41:03.164Z,99943.25
2022-08-17T07:43:47.735Z,99935.16
2022-08-17T07:46:37.514Z,99929.97
2022-08-17T07:49:05.095Z,99931.59
2022-08-17T07:51:39.654Z,99938.84
2022-08-17T07:54:15.733Z,99937.72
2022-08-17T07:56:44.661Z,99946.41
2022-08-17T07:59:13.612Z,99940.97
2022-08-17T08:01:44.984Z,99941.03
2022-08-17T08:07:18.992Z,99941.66
2022-08-17T08:10:25.142Z,99946.25
2022-08-17T08:13:05.742Z,99942.13
2022-08-17T08:15:45.167Z,99938.50
2022-08-17T08:18:38.630Z,99939.91
2022-08-17T08:21:36.124Z,99946.69
2022-08-17T08:24:36.781Z,99941.53
2022-08-17T08:27:07.307Z,99938.66
2022-08-17T08:29:55.675Z,99938.44
2022-08-17T08:32:38.410Z,99936.09
2022-08-17T08:35:23.679Z,99933.25
2022-08-17T08:37:53.271Z,99933.37
2022-08-17T08:40:39.484Z,99929.91
2022-08-17T08:43:31.010Z,99925.91
2022-08-17T08:46:00.520Z,99934.94
2022-08-17T08:49:45.060Z,99925.81
2022-08-17T08:52:39.474Z,99935.13
2022-08-17T08:55:14.115Z,99929.38
2022-08-17T08:58:00.849Z,99921.44
2022-08-17T09:00:36.237Z,99922.94
2022-08-17T09:03:17.547Z,99919.56
2022-08-17T09:06:03.768Z,99905.97
2022-08-17T09:08:50.112Z,99908.50
2022-08-17T09:12:01.766Z,99915.84
2022-08-17T09:14:49.966Z,99915.34
2022-08-17T09:17:25.414Z,99915.56
2022-08-17T09:20:04.830Z,99911.13
2022-08-17T09:22:42.704Z,99912.50
2022-08-17T09:25:17.485Z,99902.47
2022-08-17T09:28:00.673Z,99902.78
2022-08-17T09:30:37.843Z,99909.56
2022-08-17T09:33:09.160Z,99913.28
2022-08-17T09:35:44.571Z,99906.84
2022-08-17T09:38:44.095Z,99899.41
2022-08-17T09:41:38.129Z,99895.91
2022-08-17T09:44:42.793Z,99902.03
2022-08-17T09:47:26.166Z,99893.16
2022-08-17T09:50:00.460Z,99895.31
2022-08-17T09:52:29.665Z,99886.59
2022-08-17T09:55:01.813Z,99893.31
2022-08-17T09:57:34.238Z,99891.38
2022-08-17T10:00:17.973Z,99887.34
2022-08-17T10:03:16.152Z,99879.09
2022-08-17T10:05:56.664Z,99874.16
2022-08-17T10:08:27.940Z,99875.31
2022-08-17T10:11:05.789Z,99876.00
2022-08-17T10:13:38.691Z,99869.25
2022-08-17T10:16:17.526Z,99880.38
2022-08-17T10:18:59.323Z,99883.59
2022-08-17T10:21:45.168Z,99888.78
2022-08-17T10:24:36.789Z,99886.91
2022-08-17T10:27:10.733Z,99874.72
2022-08-17T10:29:54.003Z,99880.28
2022-08-17T10:32:32.928Z,99877.84
2022-08-17T10:35:18.095Z,99872.19
2022-08-17T10:37:48.049Z,99874.03
2022-08-17T10:40:21.433Z,99864.00
2022-08-17T10:42:58.007Z,99860.97
2022-08-17T10:45:49.596Z,99861.78
2022-08-17T10:48:38.715Z,99874.69
2022-08-17T10:51:34.566Z,99873.38
2022-08-17T10:54:02.243Z,99863.09
2022-08-17T10:56:45.527Z,99861.88
2022-08-17T10:59:34.821Z,99855.22
2022-08-17T11:02:04.598Z,99859.41
2022-08-17T11:04:55.876Z,99861.16
2022-08-17T11:07:37.777Z,99855.44
2022-08-17T11:10:42.208Z,99849.19
2022-08-17T11:13:08.967Z,99848.06
2022-08-17T11:15:45.832Z,99850.47
2022-08-17T11:18:50.915Z,99847.28
2022-08-17T11:21:29.839Z,99844.56
2022-08-17T11:24:05.210Z,99847.00
2022-08-17T11:26:37.417Z,99842.50
2022-08-17T11:29:16.772Z,99846.78
2022-08-17T11:31:58.497Z,99834.53
2022-08-17T11:34:29.088Z,99822.84
2022-08-17T11:37:00.435Z,99823.28
2022-08-17T11:39:30.598Z,99825.56
2022-08-17T11:42:00.624Z,99833.03
2022-08-17T11:44:34.890Z,99823.38
2022-08-17T11:47:49.525Z,99812.88
2022-08-17T11:51:08.718Z,99812.50
2022-08-17T11:53:38.651Z,99822.75
2022-08-17T11:56:28.850Z,99811.44
2022-08-17T11:58:55.963Z,99812.78
2022-08-17T12:01:22.793Z,99800.72
2022-08-17T12:04:25.510Z,99805.28
2022-08-17T12:07:23.204Z,99810.69
2022-08-17T12:09:57.231Z,99803.37
2022-08-17T12:12:35.519Z,99801.56
2022-08-17T12:15:10.607Z,99796.25
2022-08-17T12:17:41.756Z,99800.81
2022-08-17T12:20:15.789Z,99799.94
2022-08-17T12:22:57.654Z,99800.75
2022-08-17T12:25:34.237Z,99792.72
2022-08-17T12:28:05.173Z,99788.25
2022-08-17T12:30:34.264Z,99781.22
2022-08-17T12:33:01.070Z,99785.25
2022-08-17T12:35:38.983Z,99777.53
2022-08-17T12:38:32.199Z,99783.59
2022-08-17T12:40:58.509Z,99775.72
2022-08-17T12:43:31.243Z,99771.13
2022-08-17T12:46:13.020Z,99773.69
2022-08-17T12:48:59.093Z,99763.19
2022-08-17T12:51:29.212Z,99768.28
2022-08-17T12:53:56.475Z,99769.34
2022-08-17T12:56:23.292Z,99765.50
2022-08-17T12:58:54.142Z,99771.78
2022-08-17T13:01:23.511Z,99759.56
2022-08-17T13:03:53.687Z,99757.72
2022-08-17T13:06:35.731Z,99755.00
2022-08-17T13:09:11.920Z,99756.06
2022-08-17T13:11:51.265Z,99758.66
2022-08-17T13:14:19.233Z,99748.41
2022-08-17T13:16:59.734Z,99758.44
2022-08-17T13:19:40.823Z,99747.72
2022-08-17T13:22:12.841Z,99745.81
2022-08-17T13:24:53.152Z,99746.00
2022-08-17T13:27:22.567Z,99750.13
2022-08-17T13:29:55.839Z,99749.72
2022-08-17T13:32:46.570Z,99746.09
2022-08-17T13:35:44.190Z,99745.28
2022-08-17T13:38:35.957Z,99744.69
2022-08-17T13:41:04.139Z,99747.25
2022-08-17T13:43:44.877Z,99740.59
2022-08-17T13:46:23.966Z,99741.87
2022-08-17T13:49:09.958Z,99745.84
2022-08-17T13:51:45.838Z,99740.66
2022-08-17T13:54:39.245Z,99728.38
2022-08-17T13:57:12.110Z,99728.53
2022-08-17T13:59:54.767Z,99721.72
2022-08-17T14:02:26.104Z,99737.59
2022-08-17T14:04:56.816Z,99734.37
2022-08-17T14:07:29.147Z,99734.97
2022-08-17T14:10:10.756Z,99739.19
2022-08-17T14:12:40.240Z,99737.84
2022-08-17T14:15:08.815Z,99734.50
2022-08-17T14:17:38.909Z,99730.09
2022-08-17T14:20:20.051Z,99728.00
2022-08-17T14:22:51.551Z,99735.13
2022-08-17T14:25:22.141Z,99734.97
2022-08-17T14:27:53.456Z,99729.69
2022-08-17T14:30:25.667Z,99737.31
2022-08-17T14:32:54.400Z,99721.53
2022-08-17T14:35:23.928Z,99713.25
2022-08-17T14:37:51.946Z,99725.75
2022-08-17T14:40:20.901Z,99724.94
2022-08-17T14:42:48.244Z,99720.38
2022-08-17T14:45:31.983Z,99726.19
2022-08-17T14:48:04.161Z,99720.69
2022-08-17T14:50:31.813Z,99725.94
2022-08-17T14:52:59.322Z,99722.25
2022-08-17T14:55:29.832Z,99720.34
2022-08-17T14:57:57.086Z,99725.41
2022-08-17T15:00:25.461Z,99720.53
2022-08-17T15:02:56.681Z,99722.12
2022-08-17T15:05:27.805Z,99724.19
2022-08-17T15:07:55.794Z,99716.88
2022-08-17T15:10:24.751Z,99723.03
2022-08-17T15:12:53.004Z,99728.63
2022-08-17T15:15:20.380Z,99731.06
2022-08-17T15:17:47.470Z,99720.66
2022-08-17T15:20:17.857Z,99731.16
2022-08-17T15:22:47.060Z,99727.03
2022-08-17T15:25:14.597Z,99723.66
2022-08-17T15:27:42.100Z,99720.78
2022-08-17T15:30:10.618Z,99733.06
2022-08-17T15:32:41.297Z,99727.84
2022-08-17T15:35:18.211Z,99723.41
2022-08-17T15:37:45.283Z,99712.16
2022-08-17T15:40:13.312Z,99720.25
2022-08-17T15:42:41.384Z,99716.84
2022-08-17T15:45:12.818Z,99719.13
2022-08-17T15:47:40.596Z,99722.19
2022-08-17T15:50:10.148Z,99718.78
2022-08-17T15:52:40.297Z,99728.25
2022-08-17T15:55:11.496Z,99714.62
2022-08-17T15:57:38.976Z,99720.53
2022-08-17T16:00:08.727Z,99711.37
2022-08-17T16:03:13.739Z,99715.12
2022-08-17T16:05:25.294Z,99713.88
2022-08-17T16:07:53.408Z,99717.28
2022-08-17T16:10:21.134Z,99721.16
2022-08-17T16:12:50.088Z,99721.03
2022-08-17T16:15:18.680Z,99716.25
2022-08-17T16:17:46.177Z,99716.84
2022-08-17T16:20:19.543Z,99713.91
2022-08-17T16:22:50.190Z,99716.19
2022-08-17T16:25:51.884Z,99715.06
2022-08-17T16:28:11.411Z,99724.25
2022-08-17T16:30:38.363Z,99721.03
2022-08-17T16:33:05.970Z,99722.53
2022-08-17T16:35:33.357Z,99718.50
2022-08-17T16:38:00.271Z,99717.16
2022-08-17T16:40:29.536Z,99721.66
2022-08-17T16:42:58.131Z,99712.59
2022-08-17T16:45:27.894Z,99720.88
2022-08-17T16:47:59.191Z,99714.94
2022-08-17T16:50:26.339Z,99714.09
2022-08-17T16:53:06.722Z,99705.34
2022-08-17T16:55:37.473Z,99715.44
2022-08-17T16:58:05.719Z,99712.53
2022-08-17T17:00:33.868Z,99710.66
2022-08-17T17:03:19.973Z,99726.50
2022-08-17T17:06:07.147Z,99724.88
2022-08-17T17:08:48.557Z,99730.53
2022-08-17T17:11:26.651Z,99734.06
2022-08-17T17:14:01.558Z,99734.47
2022-08-17T17:16:57.157Z,99737.38
2022-08-17T17:19:34.918Z,99736.75
2022-08-17T17:22:13.955Z,99730.03
2022-08-17T17:25:08.876Z,99737.22
2022-08-17T17:27:36.500Z,99742.56
2022-08-17T17:30:20.849Z,99734.97
2022-08-17T17:33:07.010Z,99724.59
2022-08-17T17:36:06.937Z,99749.37
2022-08-17T17:38:49.037Z,99754.12
2022-08-17T17:41:26.106Z,99751.16
2022-08-17T17:44:01.692Z,99756.56
2022-08-17T17:46:38.027Z,99751.56
2022-08-17T17:49:06.205Z,99761.94
2022-08-17T17:52:05.296Z,99755.72
2022-08-17T17:54:48.982Z,99761.97
2022-08-17T17:57:30.096Z,99765.44
2022-08-17T18:00:14.166Z,99768.94
2022-08-17T18:02:52.061Z,99766.25
2022-08-17T18:05:45.114Z,99769.03
2022-08-17T18:08:34.929Z,99761.34
2022-08-17T18:11:36.274Z,99765.63
2022-08-17T18:14:31.202Z,99758.59
2022-08-17T18:17:01.259Z,99771.91
2022-08-17T18:19:31.347Z,99776.66
2022-08-17T18:22:16.223Z,99774.38
2022-08-17T18:24:46.633Z,99783.53
2022-08-17T18:27:24.483Z,99780.22
2022-08-17T18:29:55.928Z,99783.31
2022-08-17T18:32:29.145Z,99787.75
2022-08-17T18:35:19.434Z,99784.50
2022-08-17T18:37:52.820Z,99785.31
2022-08-17T18:40:20.532Z,99786.13
2022-08-17T18:42:50.258Z,99779.41
2022-08-17T18:45:49.007Z,99787.87
2022-08-17T18:48:28.400Z,99789.13
2022-08-17T18:50:59.611Z,99793.16
2022-08-17T18:53:33.968Z,99791.19
2022-08-17T18:56:16.576Z,99801.31
2022-08-17T18:59:10.320Z,99802.97
2022-08-17T19:01:53.422Z,99808.13
2022-08-17T19:04:41.446Z,99808.66
2022-08-17T19:07:17.438Z,99810.44
2022-08-17T19:09:56.978Z,99816.22
2022-08-17T19:12:33.346Z,99808.75
2022-08-17T19:15:01.103Z,99820.22
2022-08-17T19:18:00.511Z,99812.44
2022-08-17T19:20:53.906Z,99815.41
2022-08-17T19:23:53.735Z,99818.37
2022-08-17T19:26:50.656Z,99817.53
2022-08-17T19:29:25.700Z,99818.72
2022-08-17T19:31:55.593Z,99828.63
2022-08-17T19:34:33.462Z,99833.06
2022-08-17T19:37:01.290Z,99833.78
2022-08-17T19:39:40.364Z,99829.78
2022-08-17T19:42:19.727Z,99831.97
2022-08-17T19:44:56.422Z,99837.41
2022-08-17T19:47:55.618Z,99847.84
2022-08-17T19:50:47.400Z,99844.59
2022-08-17T19:53:36.888Z,99841.87
2022-08-17T19:56:34.935Z,99852.47
2022-08-17T19:59:21.128Z,99858.00
2022-08-17T20:01:53.036Z,99845.25
2022-08-17T20:04:32.350Z,99850.84
2022-08-17T20:07:09.134Z,99845.41
2022-08-17T20:09:44.657Z,99844.31
2022-08-17T20:12:19.058Z,99841.22
2022-08-17T20:15:25.394Z,99847.13
2022-08-17T20:17:53.454Z,99843.53
2022-08-17T20:20:39.211Z,99848.97
2022-08-17T20:23:30.722Z,99847.22
2022-08-17T20:26:19.445Z,99848.91
2022-08-17T20:29:08.172Z,99847.66
2022-08-17T20:31:56.015Z,99846.06
2022-08-17T20:34:33.708Z,99843.88
2022-08-17T20:37:08.619Z,99849.88
2022-08-17T20:39:45.773Z,99843.50
2022-08-17T20:42:21.653Z,99841.28
2022-08-17T20:44:51.790Z,99835.22
2022-08-17T20:47:27.333Z,99839.06
2022-08-17T20:50:26.944Z,99838.34
2022-08-17T20:52:57.938Z,99837.47
2022-08-17T20:55:34.123Z,99841.31
2022-08-17T20:58:16.420Z,99831.13
2022-08-17T21:01:08.627Z,99832.66
2022-08-17T21:03:49.263Z,99841.69
2022-08-17T21:06:20.980Z,99841.34
2022-08-17T21:08:57.610Z,99844.81
2022-08-17T21:12:01.469Z,99849.00
2022-08-17T21:14:39.780Z,99842.81
2022-08-17T21:17:33.704Z,99847.81
2022-08-17T21:20:11.980Z,99840.34
2022-08-17T21:23:01.541Z,99845.34
2022-08-17T21:25:48.934Z,99852.44
2022-08-17T21:28:23.185Z,99847.91
2022-08-17T21:31:08.978Z,99849.63
2022-08-17T21:33:39.121Z,99854.19
2022-08-17T21:36:12.014Z,99840.66
2022-08-17T21:38:47.964Z,99859.97
2022-08-17T21:41:26.433Z,99857.84
2022-08-17T21:44:02.741Z,99858.84
2022-08-17T21:46:36.941Z,99866.97
2022-08-17T21:49:13.771Z,99871.16
2022-08-17T21:51:51.270Z,99868.59
2022-08-17T21:54:38.888Z,99869.06
2022-08-17T21:57:15.636Z,99867.97
2022-08-17T21:59:44.334Z,99870.66
2022-08-17T22:02:35.384Z,99878.16
2022-08-17T22:05:07.536Z,99874.34
2022-08-17T22:07:40.820Z,99885.19
2022-08-17T22:10:30.500Z,99879.00
2022-08-17T22:13:21.533Z,99886.87
2022-08-17T22:15:49.957Z,99896.06
2022-08-17T22:18:25.265Z,99902.56
2022-08-17T22:20:55.387Z,99892.97
2022-08-17T22:23:47.963Z,99909.91
2022-08-17T22:26:17.821Z,99917.25
2022-08-17T22:28:58.318Z,99922.88
2022-08-17T22:31:28.860Z,99941.91
2022-08-17T22:34:01.594Z,99934.91
2022-08-17T22:36:39.471Z,99949.78
2022-08-17T22:39:09.097Z,99949.50
2022-08-17T22:41:47.576Z,99943.78
2022-08-17T22:44:47.003Z,99942.25
2022-08-17T22:47:17.221Z,99946.28
2022-08-17T22:49:53.248Z,99954.81
2022-08-17T22:52:32.876Z,99944.00
2022-08-17T22:55:22.823Z,99965.78
2022-08-17T22:58:10.463Z,99966.31
2022-08-17T23:00:43.523Z,99959.22
2022-08-17T23:03:17.886Z,99963.34
2022-08-17T23:05:49.012Z,99965.34
2022-08-17T23:08:21.229Z,99966.78
2022-08-17T23:10:48.656Z,99968.91
2022-08-17T23:13:15.726Z,99964.56
2022-08-17T23:15:43.078Z,99975.81
2022-08-17T23:18:10.088Z,99984.47
2022-08-17T23:20:41.838Z,99991.25
2022-08-17T23:23:11.392Z,99982.97
2022-08-17T23:25:38.581Z,99991.19
2022-08-17T23:28:07.031Z,99984.47
2022-08-17T23:30:39.357Z,99982.22
2022-08-17T23:33:10.857Z,99990.44
2022-08-17T23:35:39.868Z,99974.03
2022-08-17T23:38:09.617Z,99975.31
2022-08-17T23:40:37.808Z,99977.44
2022-08-17T23:45:57.433Z,99982.44
2022-08-17T23:48:32.666Z,99971.09
2022-08-17T23:51:08.786Z,99963.34
2022-08-17T23:53:39.082Z,99963.22
2022-08-17T23:56:10.349Z,99952.75
2022-08-17T23:58:39.867Z,99961.53
